createdAt,value
2022-10-30T00:00:09.211Z,0.00
2022-10-30T00:01:09.212Z,0.00
2022-10-30T00:02:18.052Z,0.00
2022-10-30T00:03:17.801Z,0.00
2022-10-30T00:04:18.720Z,0.00
2022-10-30T00:05:09.168Z,0.00
2022-10-30T00:06:09.218Z,0.00
2022-10-30T00:07:09.151Z,0.00
2022-10-30T00:08:09.143Z,0.00
2022-10-30T00:09:09.131Z,0.00
2022-10-30T00:10:09.103Z,0.00
2022-10-30T00:11:09.095Z,0.00
2022-10-30T00:12:09.099Z,0.00
2022-10-30T00:13:09.086Z,0.00
2022-10-30T00:14:09.062Z,0.00
2022-10-30T00:15:09.053Z,0.00
2022-10-30T00:16:09.045Z,0.00
2022-10-30T00:17:09.040Z,0.00
2022-10-30T00:18:09.041Z,0.00
2022-10-30T00:19:09.018Z,0.00
2022-10-30T00:20:08.999Z,0.00
2022-10-30T00:21:08.996Z,0.00
2022-10-30T00:22:40.582Z,0.00
2022-10-30T00:23:40.557Z,0.00
2022-10-30T00:24:40.573Z,0.00
2022-10-30T00:25:40.540Z,0.00
2022-10-30T00:26:40.524Z,0.00
2022-10-30T00:27:40.506Z,0.00
2022-10-30T00:28:40.522Z,0.00
2022-10-30T00:29:40.489Z,0.00
2022-10-30T00:30:40.481Z,0.00
2022-10-30T00:31:40.465Z,0.00
2022-10-30T00:32:40.497Z,0.00
2022-10-30T00:33:40.444Z,0.00
2022-10-30T00:34:40.476Z,0.00
2022-10-30T00:35:40.478Z,0.00
2022-10-30T00:36:40.417Z,0.00
2022-10-30T00:37:40.397Z,0.00
2022-10-30T00:38:40.373Z,0.00
2022-10-30T00:39:40.370Z,0.00
2022-10-30T00:40:40.367Z,0.00
2022-10-30T00:41:40.347Z,0.00
2022-10-30T00:42:40.343Z,0.00
2022-10-30T00:43:40.326Z,0.00
2022-10-30T00:44:40.312Z,0.00
2022-10-30T00:45:48.840Z,0.00
2022-10-30T00:46:48.805Z,0.00
2022-10-30T00:47:47.823Z,0.00
2022-10-30T00:48:40.315Z,0.00
2022-10-30T00:49:40.281Z,0.00
2022-10-30T00:50:40.254Z,0.00
2022-10-30T00:51:40.258Z,0.00
2022-10-30T00:52:40.259Z,0.00
2022-10-30T00:53:40.232Z,0.00
2022-10-30T00:54:40.236Z,0.00
2022-10-30T00:55:40.220Z,0.00
2022-10-30T00:56:40.198Z,0.00
2022-10-30T00:57:40.179Z,0.00
2022-10-30T00:58:40.164Z,0.00
2022-10-30T00:59:40.186Z,0.00
2022-10-30T01:00:40.160Z,0.00
2022-10-30T01:01:40.261Z,0.00
2022-10-30T01:02:40.199Z,0.00
2022-10-30T01:03:40.190Z,0.00
2022-10-30T01:04:40.112Z,0.00
2022-10-30T01:05:40.097Z,0.00
2022-10-30T01:06:40.077Z,0.00
2022-10-30T01:07:40.065Z,0.00
2022-10-30T01:08:40.130Z,0.00
2022-10-30T01:09:40.072Z,0.00
2022-10-30T01:10:40.045Z,0.00
2022-10-30T01:11:40.046Z,0.00
2022-10-30T01:12:40.019Z,0.00
2022-10-30T01:13:40.013Z,0.00
2022-10-30T01:14:40.004Z,0.00
2022-10-30T01:15:39.990Z,0.00
2022-10-30T01:16:39.982Z,0.00
2022-10-30T01:17:39.966Z,0.00
2022-10-30T01:18:39.942Z,0.00
2022-10-30T01:19:39.943Z,0.00
2022-10-30T01:20:39.935Z,0.00
2022-10-30T01:21:39.926Z,0.00
2022-10-30T01:22:39.914Z,0.00
2022-10-30T01:23:39.888Z,0.00
2022-10-30T01:24:39.889Z,0.00
2022-10-30T01:25:39.870Z,0.00
2022-10-30T01:26:39.875Z,0.00
2022-10-30T01:27:39.873Z,0.00
2022-10-30T01:28:39.853Z,0.00
2022-10-30T01:29:39.835Z,0.00
2022-10-30T01:30:39.816Z,0.00
2022-10-30T01:31:39.808Z,0.00
2022-10-30T01:32:39.815Z,0.00
2022-10-30T01:33:39.801Z,0.00
2022-10-30T01:34:39.841Z,0.00
2022-10-30T01:35:39.756Z,0.00
2022-10-30T01:36:39.752Z,0.00
2022-10-30T01:37:39.738Z,0.00
2022-10-30T01:38:39.725Z,0.00
2022-10-30T01:39:39.719Z,0.00
2022-10-30T01:40:39.716Z,0.00
2022-10-30T01:41:39.693Z,0.00
2022-10-30T01:42:39.684Z,0.00
2022-10-30T01:43:39.676Z,0.00
2022-10-30T01:44:39.656Z,0.00
2022-10-30T01:45:39.662Z,0.00
2022-10-30T01:46:39.653Z,0.00
2022-10-30T01:47:39.639Z,0.00
2022-10-30T01:48:39.634Z,0.00
2022-10-30T01:49:39.606Z,0.00
2022-10-30T01:50:39.618Z,0.00
2022-10-30T01:51:39.619Z,0.00
2022-10-30T01:52:39.577Z,0.00
2022-10-30T01:53:39.577Z,0.00
2022-10-30T01:54:39.557Z,0.00
2022-10-30T01:55:39.549Z,0.00
2022-10-30T01:56:39.551Z,0.00
2022-10-30T01:57:39.555Z,0.00
2022-10-30T01:58:39.511Z,0.00
2022-10-30T01:59:39.503Z,0.00
2022-10-30T02:00:39.493Z,0.00
2022-10-30T02:01:39.602Z,0.00
2022-10-30T02:02:39.542Z,0.00
2022-10-30T02:03:39.464Z,0.00
2022-10-30T02:04:39.453Z,0.00
2022-10-30T02:05:39.661Z,0.00
2022-10-30T02:06:39.432Z,0.00
2022-10-30T02:07:39.447Z,0.00
2022-10-30T02:08:39.403Z,0.00
2022-10-30T02:09:39.393Z,0.00
2022-10-30T02:10:39.380Z,0.00
2022-10-30T02:11:39.385Z,0.00
2022-10-30T02:12:39.369Z,0.00
2022-10-30T02:13:39.364Z,0.00
2022-10-30T02:14:39.324Z,0.00
2022-10-30T02:15:39.315Z,0.00
2022-10-30T02:16:39.306Z,0.00
2022-10-30T02:17:39.302Z,0.00
2022-10-30T02:18:39.379Z,0.00
2022-10-30T02:19:39.281Z,0.00
2022-10-30T02:20:39.263Z,0.00
2022-10-30T02:21:39.288Z,0.00
2022-10-30T02:22:39.344Z,0.00
2022-10-30T02:23:39.283Z,0.00
2022-10-30T02:24:39.220Z,0.00
2022-10-30T02:25:39.216Z,0.00
2022-10-30T02:26:39.221Z,0.00
2022-10-30T02:27:39.207Z,0.00
2022-10-30T02:28:39.186Z,0.00
2022-10-30T02:29:39.175Z,0.00
2022-10-30T02:30:39.146Z,0.00
2022-10-30T02:31:39.167Z,0.00
2022-10-30T02:32:39.123Z,0.00
2022-10-30T02:33:39.140Z,0.00
2022-10-30T02:34:39.136Z,0.00
2022-10-30T02:35:39.092Z,0.00
2022-10-30T02:36:39.159Z,0.00
2022-10-30T02:37:39.094Z,0.00
2022-10-30T02:38:39.081Z,0.00
2022-10-30T02:39:39.072Z,0.00
2022-10-30T02:40:39.068Z,0.00
2022-10-30T02:41:39.044Z,0.00
2022-10-30T02:42:39.025Z,0.00
2022-10-30T02:43:39.028Z,0.00
2022-10-30T02:44:39.007Z,0.00
2022-10-30T02:45:39.015Z,0.00
2022-10-30T02:46:39.000Z,0.00
2022-10-30T02:47:38.991Z,0.00
2022-10-30T02:48:38.981Z,0.00
2022-10-30T02:49:38.960Z,0.00
2022-10-30T02:50:38.940Z,0.00
2022-10-30T02:51:38.929Z,0.00
2022-10-30T02:52:38.927Z,0.00
2022-10-30T02:53:38.901Z,0.00
2022-10-30T02:54:38.888Z,0.00
2022-10-30T02:55:38.896Z,0.00
2022-10-30T02:56:38.881Z,0.00
2022-10-30T02:57:38.875Z,0.00
2022-10-30T02:58:38.858Z,0.00
2022-10-30T02:59:38.844Z,0.00
2022-10-30T03:00:38.844Z,0.00
2022-10-30T03:01:38.970Z,0.00
2022-10-30T03:02:38.920Z,0.00
2022-10-30T03:03:38.809Z,0.00
2022-10-30T03:04:38.781Z,0.00
2022-10-30T03:05:38.785Z,0.00
2022-10-30T03:06:38.761Z,0.00
2022-10-30T03:07:38.943Z,0.00
2022-10-30T03:08:38.744Z,0.00
2022-10-30T03:09:38.745Z,0.00
2022-10-30T03:10:38.731Z,0.00
2022-10-30T03:11:38.717Z,0.00
2022-10-30T03:12:38.698Z,0.00
2022-10-30T03:13:38.700Z,0.00
2022-10-30T03:14:38.671Z,0.00
2022-10-30T03:15:38.691Z,0.00
2022-10-30T03:16:38.667Z,0.00
2022-10-30T03:17:38.686Z,0.00
2022-10-30T03:18:38.642Z,0.00
2022-10-30T03:19:38.627Z,0.00
2022-10-30T03:20:38.606Z,0.00
2022-10-30T03:21:38.613Z,0.00
2022-10-30T03:22:38.604Z,0.00
2022-10-30T03:23:38.594Z,0.00
2022-10-30T03:24:38.560Z,0.00
2022-10-30T03:25:38.568Z,0.00
2022-10-30T03:26:38.549Z,0.00
2022-10-30T03:27:38.544Z,0.00
2022-10-30T03:28:38.536Z,0.00
2022-10-30T03:29:38.519Z,0.00
2022-10-30T03:30:38.510Z,0.00
2022-10-30T03:31:38.499Z,0.00
2022-10-30T03:32:38.490Z,0.00
2022-10-30T03:33:38.485Z,0.00
2022-10-30T03:34:38.478Z,0.00
2022-10-30T03:35:38.453Z,0.00
2022-10-30T03:36:38.433Z,0.00
2022-10-30T03:37:38.449Z,0.00
2022-10-30T03:38:38.492Z,0.00
2022-10-30T03:39:38.407Z,0.00
2022-10-30T03:40:38.414Z,0.00
2022-10-30T03:41:38.389Z,0.00
2022-10-30T03:42:38.371Z,0.00
2022-10-30T03:43:38.378Z,0.00
2022-10-30T03:44:38.394Z,0.00
2022-10-30T03:45:38.355Z,0.00
2022-10-30T03:46:38.326Z,0.00
2022-10-30T03:47:38.307Z,0.00
2022-10-30T03:48:38.307Z,0.00
2022-10-30T03:49:38.298Z,0.00
2022-10-30T03:50:38.284Z,0.00
2022-10-30T03:51:38.280Z,0.00
2022-10-30T03:52:38.270Z,0.00
2022-10-30T03:53:38.234Z,0.00
2022-10-30T03:54:38.249Z,0.00
2022-10-30T03:55:38.230Z,0.00
2022-10-30T03:56:38.216Z,0.00
2022-10-30T03:57:38.243Z,0.00
2022-10-30T03:58:38.198Z,0.00
2022-10-30T03:59:38.189Z,0.00
2022-10-30T04:00:38.177Z,0.00
2022-10-30T04:01:38.386Z,0.00
2022-10-30T04:02:38.157Z,0.00
2022-10-30T04:03:38.170Z,0.00
2022-10-30T04:04:38.142Z,0.00
2022-10-30T04:05:38.122Z,0.00
2022-10-30T04:06:38.117Z,0.00
2022-10-30T04:07:38.100Z,0.00
2022-10-30T04:08:38.091Z,0.00
2022-10-30T04:09:38.323Z,0.00
2022-10-30T04:10:38.100Z,0.00
2022-10-30T04:11:38.058Z,0.00
2022-10-30T04:12:38.040Z,0.00
2022-10-30T04:13:38.030Z,0.00
2022-10-30T04:14:38.022Z,0.00
2022-10-30T04:15:38.014Z,0.00
2022-10-30T04:16:38.011Z,0.00
2022-10-30T04:17:38.002Z,0.00
2022-10-30T04:18:37.982Z,0.00
2022-10-30T04:19:37.978Z,0.00
2022-10-30T04:20:37.953Z,0.00
2022-10-30T04:21:37.950Z,0.00
2022-10-30T04:22:37.940Z,0.00
2022-10-30T04:23:37.922Z,0.00
2022-10-30T04:24:37.913Z,0.00
2022-10-30T04:25:37.888Z,0.00
2022-10-30T04:26:37.904Z,0.00
2022-10-30T04:27:37.882Z,0.00
2022-10-30T04:28:37.866Z,0.00
2022-10-30T04:29:37.853Z,0.00
2022-10-30T04:30:37.838Z,0.00
2022-10-30T04:31:37.846Z,0.00
2022-10-30T04:32:37.821Z,0.00
2022-10-30T04:33:37.834Z,0.00
2022-10-30T04:34:37.804Z,0.00
2022-10-30T04:35:37.780Z,0.00
2022-10-30T04:36:37.785Z,0.00
2022-10-30T04:37:37.776Z,0.00
2022-10-30T04:38:37.753Z,0.00
2022-10-30T04:39:41.019Z,0.00
2022-10-30T04:40:38.753Z,0.00
2022-10-30T04:41:37.721Z,0.00
2022-10-30T04:42:37.733Z,0.00
2022-10-30T04:43:37.709Z,0.00
2022-10-30T04:44:37.701Z,0.00
2022-10-30T04:45:37.681Z,0.00
2022-10-30T04:46:37.671Z,0.00
2022-10-30T04:47:37.655Z,0.00
2022-10-30T04:48:37.659Z,0.00
2022-10-30T04:49:37.650Z,0.00
2022-10-30T04:50:37.622Z,0.00
2022-10-30T04:51:37.625Z,0.00
2022-10-30T04:52:37.603Z,0.00
2022-10-30T04:53:37.599Z,0.00
2022-10-30T04:54:37.590Z,0.00
2022-10-30T04:55:37.562Z,0.00
2022-10-30T04:56:37.572Z,0.00
2022-10-30T04:57:37.549Z,0.00
2022-10-30T04:58:37.525Z,0.00
2022-10-30T04:59:37.523Z,0.00
2022-10-30T05:00:37.519Z,0.00
2022-10-30T05:01:37.643Z,0.00
2022-10-30T05:02:37.614Z,0.00
2022-10-30T05:03:37.476Z,0.00
2022-10-30T05:04:37.466Z,0.00
2022-10-30T05:05:37.456Z,0.00
2022-10-30T05:06:37.443Z,0.00
2022-10-30T05:07:37.429Z,0.00
2022-10-30T05:08:37.431Z,0.00
2022-10-30T05:09:37.417Z,0.00
2022-10-30T05:10:37.394Z,0.00
2022-10-30T05:11:37.470Z,0.00
2022-10-30T05:12:37.386Z,0.00
2022-10-30T05:13:37.387Z,0.00
2022-10-30T05:14:37.362Z,0.00
2022-10-30T05:15:37.348Z,0.00
2022-10-30T05:16:37.365Z,0.00
2022-10-30T05:17:37.347Z,0.00
2022-10-30T05:18:37.317Z,0.00
2022-10-30T05:19:37.303Z,0.00
2022-10-30T05:20:37.317Z,0.00
2022-10-30T05:21:37.295Z,0.00
2022-10-30T05:22:37.257Z,0.00
2022-10-30T05:23:37.252Z,0.00
2022-10-30T05:24:37.253Z,0.00
2022-10-30T05:25:37.245Z,0.00
2022-10-30T05:26:37.253Z,0.00
2022-10-30T05:27:37.228Z,0.00
2022-10-30T05:28:37.233Z,0.00
2022-10-30T05:29:37.224Z,0.00
2022-10-30T05:30:37.186Z,0.00
2022-10-30T05:31:37.196Z,0.00
2022-10-30T05:32:37.168Z,0.00
2022-10-30T05:33:37.173Z,0.00
2022-10-30T05:34:37.167Z,0.00
2022-10-30T05:35:37.143Z,0.00
2022-10-30T05:36:37.132Z,0.00
2022-10-30T05:37:37.114Z,0.00
2022-10-30T05:38:37.111Z,0.00
2022-10-30T05:39:37.087Z,0.00
2022-10-30T05:40:37.088Z,0.00
2022-10-30T05:41:37.054Z,0.00
2022-10-30T05:42:37.093Z,0.00
2022-10-30T05:43:37.035Z,0.00
2022-10-30T05:44:59.438Z,0.00
2022-10-30T05:45:38.017Z,0.00
2022-10-30T05:46:37.019Z,0.00
2022-10-30T05:47:36.994Z,0.00
2022-10-30T05:48:36.995Z,0.00
2022-10-30T05:49:36.977Z,0.00
2022-10-30T05:50:37.143Z,0.00
2022-10-30T05:51:39.707Z,0.00
2022-10-30T05:52:36.955Z,0.00
2022-10-30T05:53:36.935Z,0.00
2022-10-30T05:54:36.917Z,0.00
2022-10-30T05:55:36.908Z,0.00
2022-10-30T05:56:36.909Z,0.00
2022-10-30T05:57:36.897Z,0.00
2022-10-30T05:58:36.896Z,0.00
2022-10-30T05:59:36.886Z,0.00
2022-10-30T06:00:36.868Z,0.00
2022-10-30T06:01:36.936Z,0.00
2022-10-30T06:02:36.885Z,0.00
2022-10-30T06:03:36.837Z,0.00
2022-10-30T06:04:36.865Z,0.00
2022-10-30T06:05:36.838Z,0.00
2022-10-30T06:06:36.796Z,0.00
2022-10-30T06:07:36.777Z,0.00
2022-10-30T06:08:36.848Z,0.00
2022-10-30T06:09:36.822Z,5.62
2022-10-30T06:10:36.940Z,5.62
2022-10-30T06:11:36.875Z,5.62
2022-10-30T06:12:36.819Z,5.62
2022-10-30T06:13:36.868Z,5.62
2022-10-30T06:14:36.713Z,5.62
2022-10-30T06:15:36.705Z,11.25
2022-10-30T06:16:36.676Z,11.25
2022-10-30T06:17:36.673Z,11.25
2022-10-30T06:18:36.673Z,11.25
2022-10-30T06:19:36.648Z,11.25
2022-10-30T06:20:36.636Z,16.88
2022-10-30T06:21:36.642Z,16.88
2022-10-30T06:22:36.633Z,16.88
2022-10-30T06:23:36.605Z,22.50
2022-10-30T06:24:36.595Z,22.50
2022-10-30T06:25:41.085Z,22.50
2022-10-30T06:26:37.580Z,22.50
2022-10-30T06:27:36.564Z,28.12
2022-10-30T06:28:36.560Z,28.12
2022-10-30T06:29:36.545Z,33.75
2022-10-30T06:30:36.538Z,33.75
2022-10-30T06:31:36.523Z,33.75
2022-10-30T06:32:36.513Z,39.38
2022-10-30T06:33:36.507Z,39.38
2022-10-30T06:34:36.495Z,45.00
2022-10-30T06:35:36.492Z,45.00
2022-10-30T06:36:36.512Z,45.00
2022-10-30T06:37:36.464Z,50.62
2022-10-30T06:38:36.460Z,50.62
2022-10-30T06:39:36.432Z,56.25
2022-10-30T06:40:36.427Z,56.25
2022-10-30T06:41:36.408Z,61.88
2022-10-30T06:42:36.410Z,61.88
2022-10-30T06:43:36.397Z,67.50
2022-10-30T06:44:36.453Z,67.50
2022-10-30T06:45:36.367Z,67.50
2022-10-30T06:46:36.366Z,73.12
2022-10-30T06:47:36.511Z,73.12
2022-10-30T06:48:36.471Z,78.75
2022-10-30T06:49:36.380Z,78.75
2022-10-30T06:50:36.405Z,84.38
2022-10-30T06:51:37.619Z,84.38
2022-10-30T06:52:36.407Z,90.00
2022-10-30T06:53:37.758Z,90.00
2022-10-30T06:54:36.371Z,95.62
2022-10-30T06:55:36.551Z,95.62
2022-10-30T06:56:36.804Z,95.62
2022-10-30T06:57:37.793Z,101.25
2022-10-30T06:58:36.348Z,101.25
2022-10-30T06:59:57.341Z,106.88
2022-10-30T07:00:36.796Z,106.88
2022-10-30T07:01:36.354Z,112.50
2022-10-30T07:02:36.462Z,118.12
2022-10-30T07:03:40.986Z,118.12
2022-10-30T07:04:37.605Z,118.12
2022-10-30T07:05:36.291Z,118.12
2022-10-30T07:06:36.197Z,123.75
2022-10-30T07:07:36.178Z,123.75
2022-10-30T07:08:36.289Z,129.38
2022-10-30T07:09:36.391Z,129.38
2022-10-30T07:10:36.256Z,135.00
2022-10-30T07:11:36.329Z,135.00
2022-10-30T07:12:36.168Z,140.62
2022-10-30T07:13:36.659Z,140.62
2022-10-30T07:14:36.670Z,146.25
2022-10-30T07:15:36.583Z,146.25
2022-10-30T07:16:36.093Z,146.25
2022-10-30T07:17:36.192Z,151.88
2022-10-30T07:18:36.241Z,151.88
2022-10-30T07:19:36.676Z,157.50
2022-10-30T07:20:36.084Z,157.50
2022-10-30T07:21:36.360Z,163.12
2022-10-30T07:22:36.038Z,163.12
2022-10-30T07:23:36.007Z,168.75
2022-10-30T07:24:36.031Z,168.75
2022-10-30T07:25:36.144Z,174.38
2022-10-30T07:26:36.034Z,174.38
2022-10-30T07:27:36.318Z,174.38
2022-10-30T07:28:36.001Z,180.00
2022-10-30T07:29:36.097Z,185.62
2022-10-30T07:30:35.893Z,185.62
2022-10-30T07:31:42.733Z,191.25
2022-10-30T07:32:37.762Z,191.25
2022-10-30T07:33:37.020Z,196.88
2022-10-30T07:34:35.907Z,196.88
2022-10-30T07:35:35.818Z,202.50
2022-10-30T07:36:35.800Z,202.50
2022-10-30T07:37:36.485Z,202.50
2022-10-30T07:38:35.772Z,202.50
2022-10-30T07:39:35.783Z,202.50
2022-10-30T07:40:35.757Z,208.12
2022-10-30T07:41:35.751Z,208.12
2022-10-30T07:42:35.735Z,213.75
2022-10-30T07:43:35.727Z,213.75
2022-10-30T07:44:35.728Z,213.75
2022-10-30T07:45:35.709Z,219.38
2022-10-30T07:46:35.700Z,219.38
2022-10-30T07:47:35.693Z,219.38
2022-10-30T07:48:35.673Z,230.62
2022-10-30T07:49:35.658Z,230.62
2022-10-30T07:50:35.651Z,236.25
2022-10-30T07:51:35.672Z,236.25
2022-10-30T07:52:35.613Z,241.88
2022-10-30T07:53:35.986Z,241.88
2022-10-30T07:54:35.600Z,241.88
2022-10-30T07:55:35.605Z,247.50
2022-10-30T07:56:36.529Z,247.50
2022-10-30T07:57:35.582Z,253.12
2022-10-30T07:58:35.548Z,253.12
2022-10-30T07:59:35.633Z,258.75
2022-10-30T08:00:35.565Z,258.75
2022-10-30T08:01:35.647Z,258.75
2022-10-30T08:02:35.695Z,264.38
2022-10-30T08:03:35.514Z,264.38
2022-10-30T08:04:35.495Z,270.00
2022-10-30T08:05:35.492Z,270.00
2022-10-30T08:06:35.482Z,275.62
2022-10-30T08:07:35.467Z,275.62
2022-10-30T08:08:42.125Z,281.25
2022-10-30T08:09:36.455Z,281.25
2022-10-30T08:10:35.428Z,281.25
2022-10-30T08:11:35.453Z,281.25
2022-10-30T08:12:35.409Z,286.88
2022-10-30T08:13:35.399Z,286.88
2022-10-30T08:14:35.385Z,292.50
2022-10-30T08:15:35.387Z,292.50
2022-10-30T08:16:35.550Z,298.12
2022-10-30T08:17:35.386Z,298.12
2022-10-30T08:18:35.359Z,303.75
2022-10-30T08:19:35.346Z,303.75
2022-10-30T08:20:35.405Z,309.38
2022-10-30T08:21:35.318Z,309.38
2022-10-30T08:22:35.316Z,315.00
2022-10-30T08:23:35.363Z,315.00
2022-10-30T08:24:35.288Z,315.00
2022-10-30T08:25:35.283Z,320.62
2022-10-30T08:26:35.274Z,320.62
2022-10-30T08:27:35.245Z,326.25
2022-10-30T08:28:35.273Z,326.25
2022-10-30T08:29:35.235Z,331.88
2022-10-30T08:30:35.396Z,331.88
2022-10-30T08:31:35.249Z,337.50
2022-10-30T08:32:35.280Z,337.50
2022-10-30T08:33:35.194Z,337.50
2022-10-30T08:34:35.168Z,343.12
2022-10-30T08:36:35.129Z,343.12
2022-10-30T08:37:35.139Z,343.12
2022-10-30T08:38:35.112Z,348.75
2022-10-30T08:39:35.140Z,354.38
2022-10-30T08:40:35.121Z,360.00
2022-10-30T08:41:35.096Z,360.00
2022-10-30T08:42:35.077Z,360.00
2022-10-30T08:43:35.067Z,360.00
2022-10-30T08:44:35.065Z,365.62
2022-10-30T08:45:35.075Z,365.62
2022-10-30T08:46:35.038Z,371.25
2022-10-30T08:47:35.093Z,371.25
2022-10-30T08:48:35.045Z,376.88
2022-10-30T08:49:35.130Z,376.88
2022-10-30T08:50:35.004Z,382.50
2022-10-30T08:51:34.991Z,382.50
2022-10-30T08:52:34.962Z,382.50
2022-10-30T08:53:35.029Z,388.12
2022-10-30T08:54:34.950Z,393.75
2022-10-30T08:55:34.959Z,399.38
2022-10-30T08:56:34.917Z,399.38
2022-10-30T08:57:34.935Z,399.38
2022-10-30T08:58:34.914Z,399.38
2022-10-30T08:59:34.893Z,405.00
2022-10-30T09:00:34.881Z,410.62
2022-10-30T09:01:34.987Z,410.62
2022-10-30T09:02:35.126Z,416.25
2022-10-30T09:03:34.859Z,421.88
2022-10-30T09:04:34.906Z,427.50
2022-10-30T09:05:35.110Z,421.88
2022-10-30T09:06:34.813Z,427.50
2022-10-30T09:07:34.829Z,438.75
2022-10-30T09:08:34.815Z,444.38
2022-10-30T09:09:34.794Z,450.00
2022-10-30T09:10:34.808Z,450.00
2022-10-30T09:11:34.753Z,450.00
2022-10-30T09:12:34.744Z,455.62
2022-10-30T09:13:35.728Z,461.25
2022-10-30T09:14:34.741Z,461.25
2022-10-30T09:15:34.700Z,466.88
2022-10-30T09:16:34.705Z,472.50
2022-10-30T09:17:34.700Z,450.00
2022-10-30T09:18:34.793Z,489.38
2022-10-30T09:19:34.760Z,495.00
2022-10-30T09:20:34.660Z,500.62
2022-10-30T09:21:34.659Z,506.25
2022-10-30T09:22:34.660Z,506.25
2022-10-30T09:23:34.627Z,511.88
2022-10-30T09:24:34.642Z,523.12
2022-10-30T09:25:34.613Z,528.75
2022-10-30T09:26:34.595Z,534.38
2022-10-30T09:27:34.628Z,540.00
2022-10-30T09:28:34.578Z,534.38
2022-10-30T09:29:34.563Z,540.00
2022-10-30T09:30:34.560Z,540.00
2022-10-30T09:31:34.577Z,540.00
2022-10-30T09:32:34.562Z,528.75
2022-10-30T09:33:34.555Z,540.00
2022-10-30T09:34:34.533Z,545.62
2022-10-30T09:35:34.520Z,545.62
2022-10-30T09:36:34.488Z,545.62
2022-10-30T09:37:34.476Z,545.62
2022-10-30T09:38:34.548Z,545.62
2022-10-30T09:39:34.475Z,534.38
2022-10-30T09:40:34.535Z,534.38
2022-10-30T09:41:34.442Z,540.00
2022-10-30T09:42:34.416Z,545.62
2022-10-30T09:43:34.914Z,545.62
2022-10-30T09:44:34.410Z,545.62
2022-10-30T09:45:34.504Z,556.88
2022-10-30T09:46:34.392Z,556.88
2022-10-30T09:47:34.394Z,562.50
2022-10-30T09:48:34.369Z,562.50
2022-10-30T09:49:34.429Z,568.12
2022-10-30T09:50:37.246Z,568.12
2022-10-30T09:51:35.335Z,579.38
2022-10-30T09:52:34.325Z,585.00
2022-10-30T09:53:34.325Z,601.88
2022-10-30T09:54:34.322Z,607.50
2022-10-30T09:55:34.281Z,607.50
2022-10-30T09:56:34.272Z,607.50
2022-10-30T09:57:34.301Z,635.62
2022-10-30T09:58:34.260Z,832.50
2022-10-30T09:59:34.463Z,770.62
2022-10-30T10:00:34.237Z,652.50
2022-10-30T10:01:34.382Z,658.12
2022-10-30T10:02:34.513Z,675.00
2022-10-30T10:03:34.192Z,810.00
2022-10-30T10:04:34.240Z,1546.88
2022-10-30T10:05:34.220Z,2261.25
2022-10-30T10:06:34.174Z,2345.62
2022-10-30T10:07:34.169Z,2430.00
2022-10-30T10:08:34.172Z,2514.38
2022-10-30T10:09:34.189Z,2576.25
2022-10-30T10:10:34.118Z,2587.50
2022-10-30T10:11:34.113Z,2581.88
2022-10-30T10:12:34.105Z,2660.62
2022-10-30T10:13:34.126Z,2581.88
2022-10-30T10:14:34.087Z,2458.12
2022-10-30T10:15:34.124Z,2266.88
2022-10-30T10:16:34.066Z,2030.62
2022-10-30T10:17:34.066Z,1608.75
2022-10-30T10:18:34.049Z,1794.38
2022-10-30T10:19:34.013Z,2120.62
2022-10-30T10:20:34.179Z,2604.38
2022-10-30T10:21:33.994Z,2795.62
2022-10-30T10:22:33.995Z,2778.75
2022-10-30T10:23:33.986Z,2829.38
2022-10-30T10:24:33.969Z,2840.62
2022-10-30T10:25:33.970Z,2795.62
2022-10-30T10:26:33.952Z,2829.38
2022-10-30T10:27:33.943Z,2818.12
2022-10-30T10:28:36.771Z,2716.88
2022-10-30T10:29:33.935Z,2317.50
2022-10-30T10:30:33.922Z,2311.88
2022-10-30T10:31:33.890Z,2475.00
2022-10-30T10:32:33.892Z,2503.12
2022-10-30T10:33:33.875Z,2559.38
2022-10-30T10:34:33.895Z,2604.38
2022-10-30T10:35:33.860Z,2306.25
2022-10-30T10:36:33.827Z,2098.12
2022-10-30T10:37:33.849Z,1760.62
2022-10-30T10:38:33.810Z,1946.25
2022-10-30T10:39:33.799Z,2126.25
2022-10-30T10:40:33.819Z,2649.38
2022-10-30T10:41:33.808Z,2750.62
2022-10-30T10:42:33.778Z,2857.50
2022-10-30T10:43:33.771Z,3065.62
2022-10-30T10:44:33.767Z,3279.38
2022-10-30T10:45:33.743Z,3442.50
2022-10-30T10:46:33.733Z,3453.75
2022-10-30T10:47:33.730Z,3358.12
2022-10-30T10:48:33.725Z,3301.88
2022-10-30T10:49:35.919Z,3251.25
2022-10-30T10:50:35.960Z,2941.88
2022-10-30T10:51:33.688Z,2998.12
2022-10-30T10:52:33.691Z,3206.25
2022-10-30T10:53:33.675Z,3268.12
2022-10-30T10:54:34.652Z,3189.38
2022-10-30T10:55:34.081Z,3026.25
2022-10-30T10:56:33.643Z,2925.00
2022-10-30T10:57:33.619Z,2947.50
2022-10-30T10:58:33.903Z,3189.38
2022-10-30T10:59:33.599Z,3279.38
2022-10-30T11:00:33.611Z,3228.75
2022-10-30T11:01:33.749Z,3223.12
2022-10-30T11:02:34.192Z,3099.38
2022-10-30T11:03:33.931Z,2700.00
2022-10-30T11:04:33.558Z,2868.75
2022-10-30T11:05:33.846Z,3015.00
2022-10-30T11:06:33.859Z,3121.88
2022-10-30T11:07:34.266Z,3110.62
2022-10-30T11:08:34.883Z,3296.25
2022-10-30T11:09:33.483Z,3301.88
2022-10-30T11:10:33.571Z,3262.50
2022-10-30T11:11:33.476Z,3358.12
2022-10-30T11:12:36.133Z,3352.50
2022-10-30T11:13:33.464Z,3234.38
2022-10-30T11:14:33.576Z,3211.88
2022-10-30T11:15:33.531Z,2773.12
2022-10-30T11:16:33.435Z,3183.75
2022-10-30T11:17:33.515Z,2986.88
2022-10-30T11:18:33.384Z,3116.25
2022-10-30T11:19:33.382Z,2936.25
2022-10-30T11:20:33.436Z,2671.88
2022-10-30T11:21:33.523Z,2199.38
2022-10-30T11:22:33.380Z,2233.12
2022-10-30T11:23:33.467Z,2407.50
2022-10-30T11:24:33.362Z,2700.00
2022-10-30T11:25:33.362Z,2970.00
2022-10-30T11:26:33.381Z,2913.75
2022-10-30T11:27:34.009Z,3206.25
2022-10-30T11:28:34.172Z,2806.88
2022-10-30T11:29:33.299Z,3234.38
2022-10-30T11:30:33.349Z,3335.62
2022-10-30T11:31:33.283Z,3397.50
2022-10-30T11:32:34.023Z,3369.38
2022-10-30T11:33:34.303Z,3330.00
2022-10-30T11:34:35.486Z,3301.88
2022-10-30T11:35:33.212Z,3245.62
2022-10-30T11:36:33.203Z,2947.50
2022-10-30T11:37:33.199Z,2902.50
2022-10-30T11:38:33.443Z,3206.25
2022-10-30T11:39:33.836Z,3138.75
2022-10-30T11:40:33.524Z,3065.62
2022-10-30T11:41:33.195Z,2992.50
2022-10-30T11:42:33.154Z,2896.88
2022-10-30T11:43:33.247Z,2688.75
2022-10-30T11:44:33.154Z,2801.25
2022-10-30T11:45:33.209Z,3060.00
2022-10-30T11:46:33.159Z,3043.12
2022-10-30T11:48:33.168Z,3082.50
2022-10-30T11:49:33.077Z,3009.38
2022-10-30T11:50:33.053Z,2964.38
2022-10-30T11:51:33.186Z,2716.88
2022-10-30T11:52:33.061Z,2323.12
2022-10-30T11:53:33.019Z,2587.50
2022-10-30T11:54:33.140Z,2745.00
2022-10-30T11:55:33.009Z,2902.50
2022-10-30T11:56:33.000Z,2902.50
2022-10-30T11:57:33.088Z,3088.12
2022-10-30T11:58:33.004Z,3150.00
2022-10-30T11:59:32.968Z,3043.12
2022-10-30T12:00:33.011Z,2840.62
2022-10-30T12:01:33.025Z,2908.12
2022-10-30T12:02:33.297Z,2953.12
2022-10-30T12:03:33.004Z,3003.75
2022-10-30T12:04:32.960Z,2818.12
2022-10-30T12:05:32.901Z,3054.38
2022-10-30T12:06:33.058Z,3138.75
2022-10-30T12:07:32.923Z,3099.38
2022-10-30T12:08:32.964Z,2874.38
2022-10-30T12:09:33.033Z,2649.38
2022-10-30T12:10:34.052Z,3076.88
2022-10-30T12:11:32.980Z,3065.62
2022-10-30T12:12:32.937Z,2806.88
2022-10-30T12:13:32.895Z,2885.62
2022-10-30T12:14:32.821Z,2868.75
2022-10-30T12:15:32.979Z,2823.75
2022-10-30T12:16:32.783Z,2885.62
2022-10-30T12:17:33.479Z,2975.62
2022-10-30T12:18:34.657Z,2767.50
2022-10-30T12:19:32.832Z,2795.62
2022-10-30T12:20:32.784Z,2930.62
2022-10-30T12:21:32.745Z,2880.00
2022-10-30T12:22:32.751Z,2964.38
2022-10-30T12:23:33.063Z,3015.00
2022-10-30T12:24:34.326Z,2958.75
2022-10-30T12:25:33.543Z,3133.12
2022-10-30T12:26:32.733Z,3223.12
2022-10-30T12:27:33.467Z,3206.25
2022-10-30T12:28:32.767Z,2840.62
2022-10-30T12:30:02.454Z,3088.12
2022-10-30T12:30:34.621Z,3003.75
2022-10-30T12:31:32.651Z,3195.00
2022-10-30T12:32:37.089Z,2868.75
2022-10-30T12:33:34.604Z,2913.75
2022-10-30T12:34:33.339Z,2840.62
2022-10-30T12:35:32.590Z,2790.00
2022-10-30T12:36:33.281Z,2655.00
2022-10-30T12:37:32.639Z,2711.25
2022-10-30T12:38:33.137Z,2525.62
2022-10-30T12:39:33.118Z,2109.38
2022-10-30T12:40:32.571Z,2272.50
2022-10-30T12:41:32.653Z,2362.50
2022-10-30T12:42:32.538Z,2604.38
2022-10-30T12:43:32.627Z,2739.38
2022-10-30T12:44:32.549Z,2300.62
2022-10-30T12:45:32.788Z,2233.12
2022-10-30T12:46:32.654Z,2373.75
2022-10-30T12:47:32.493Z,2463.75
2022-10-30T12:48:32.469Z,2778.75
2022-10-30T12:49:32.897Z,2863.12
2022-10-30T12:50:32.609Z,2880.00